Latest Weather Observations for Deniliquin

IDN60801

Issued at 8:03 pm EST Wednesday 5 August 2020 (issued every 10 minutes, with the page automatically refreshed every 10 minutes)

About weather observations | Map of weather stations | Latest weather observations for NSW | Other Formats
Station Details ID: 074258 Name: DENILIQUIN AIRPORT AWS Lat: -35.56 Lon: 144.95 Height: 94.0 m
Data from the previous 72 hours. | See also: Recent months at Deniliquin
Date/Time
EST
Temp
°C
App
Temp
°C
Dew
Point
°C
Rel
Hum
%
Delta-T
°C
Wind Press
QNH
hPa
Press
MSL
hPa
Rain since
9am
mm
Dir  Spd
km/h
Gust
km/h
Spd
kts
Gust
kts
05/08:00pm 2.8 -1.4 -0.6 78 1.2 W 11 13 6 7 1018.7 1018.8 0.0
05/07:30pm 4.1 -0.4 -0.1 74 1.6 WSW 13 15 7 8 1018.5 1018.6 0.0
05/07:00pm 4.0 -0.6 -0.8 71 1.8 SW 13 13 7 7 1018.5 1018.6 0.0
05/06:30pm 5.2 0.7 -0.4 67 2.1 WSW 13 13 7 7 1018.3 1018.4 0.0
05/06:00pm 6.1 1.6 -0.4 63 2.5 WSW 13 15 7 8 1017.8 1017.9 0.0
05/05:30pm 8.3 4.3 0.5 58 3.1 WSW 11 15 6 8 1017.8 1017.9 0.0
05/05:00pm 10.9 6.5 0.6 49 4.2 WSW 13 19 7 10 1017.6 1017.7 0.0
05/04:30pm 10.3 4.7 0.9 52 3.9 SW 20 26 11 14 1017.4 1017.5 0.0
05/04:00pm 11.5 5.2 1.5 50 4.2 SW 24 32 13 17 1017.0 1017.1 0.0
05/03:30pm 11.2 5.1 0.6 48 4.4 SW 22 30 12 16 1017.0 1017.1 0.0
05/03:00pm 12.6 6.9 0.4 43 5.1 WSW 20 28 11 15 1017.0 1017.1 0.0
05/02:30pm 13.0 6.7 1.4 45 5.0 WSW 24 30 13 16 1017.1 1017.2 0.0
05/02:00pm 12.1 5.7 0.8 46 4.7 WSW 24 33 13 18 1017.2 1017.3 0.0
05/01:30pm 11.7 5.2 0.5 46 4.7 SW 24 32 13 17 1017.5 1017.6 0.0
05/01:00pm 11.4 5.5 1.4 50 4.2 SW 22 30 12 16 1017.8 1017.9 0.0
05/12:30pm 11.6 5.0 2.1 52 4.1 SW 26 35 14 19 1018.0 1018.1 0.0
05/12:00pm 11.1 4.6 2.7 56 3.6 SW 26 33 14 18 1018.2 1018.3 0.0
05/11:30am 10.5 3.1 1.9 55 3.6 SW 30 41 16 22 1018.4 1018.5 0.0
05/11:00am 9.4 3.0 3.2 65 2.7 WSW 26 32 14 17 1018.8 1018.9 0.0
05/10:30am 7.8 1.8 3.3 73 1.9 WSW 24 32 13 17 1019.0 1019.1 0.0
05/10:00am 6.9 1.3 3.5 79 1.4 W 22 28 12 15 1018.8 1018.9 0.0
05/09:30am 5.7 0.4 3.0 83 1.1 W 20 26 11 14 1018.8 1018.9 0.0
05/09:00am 4.1 -1.4 2.1 87 0.8 W 20 26 11 14 1018.6 1018.7 0.0
05/08:30am 2.5 -2.5 1.5 93 0.4 W 17 22 9 12 1018.3 1018.4 0.0
05/08:00am 0.8 -4.3 0.7 99 0.0 WNW 17 22 9 12 1018.0 1018.1 0.0
05/07:30am -0.7 -5.3 -0.8 99 0.0 WNW 13 17 7 9 1017.7 1017.8 0.0
05/07:00am -1.5 -5.4 -1.8 98 0.0 WNW 9 13 5 7 1017.3 1017.4 0.0
05/06:30am -1.4 -5.7 -2.0 96 0.1 WSW 11 13 6 7 1017.1 1017.2 0.0
05/06:00am -0.9 -4.4 -1.6 95 0.2 WSW 7 9 4 5 1017.1 1017.2 0.0
05/05:30am 0.4 -4.9 -0.5 94 0.3 W 17 22 9 12 1016.9 1017.0 0.0
05/05:00am 0.4 -4.9 -0.3 95 0.3 W 17 20 9 11 1016.7 1016.8 0.0
05/04:30am 0.4 -4.5 -0.6 93 0.4 W 15 20 8 11 1016.7 1016.8 0.0
05/04:00am 1.5 -4.3 0.2 91 0.5 W 20 26 11 14 1016.7 1016.8 0.0
05/03:30am 1.3 -4.5 -0.2 90 0.5 W 20 26 11 14 1016.7 1016.8 0.0
05/03:00am 2.0 -3.7 0.4 89 0.6 W 20 26 11 14 1017.0 1017.1 0.0
05/02:30am 1.7 -3.5 0.1 89 0.6 W 17 20 9 11 1017.0 1017.1 0.0
05/02:00am 1.8 -3.8 0.2 89 0.6 W 19 22 10 12 1017.3 1017.4 0.0
05/01:30am 1.5 -3.7 0.2 91 0.5 W 17 20 9 11 1017.5 1017.6 0.0
05/01:00am 2.0 -3.2 0.4 89 0.6 WNW 17 24 9 13 1017.3 1017.4 0.0
05/12:30am 2.3 -2.8 0.5 88 0.7 W 17 22 9 12 1017.4 1017.5 0.0
05/12:00am 3.0 -2.5 0.6 84 0.9 W 19 22 10 12 1017.4 1017.5 0.0
 
Date/Time
EST
Temp
°C
App
Temp
°C
Dew
Point
°C
Rel
Hum
%
Delta-T
°C
Wind Press
QNH
hPa
Press
MSL
hPa
Rain since
9am
mm
Dir  Spd
km/h
Gust
km/h
Spd
kts
Gust
kts
04/11:30pm 3.2 -2.3 0.6 83 1.0 W 19 22 10 12 1017.3 1017.4 0.0
04/11:00pm 3.3 -1.8 0.7 83 1.0 WNW 17 22 9 12 1017.2 1017.3 0.0
04/10:30pm 2.9 -1.5 0.6 85 0.9 W 13 17 7 9 1017.4 1017.5 0.0
04/10:00pm 3.1 -1.7 0.3 82 1.1 W 15 19 8 10 1017.5 1017.6 0.0
04/09:30pm 3.8 -1.4 0.1 77 1.4 W 17 19 9 10 1017.5 1017.6 0.0
04/09:00pm 4.4 -1.2 0.2 74 1.6 WSW 19 22 10 12 1017.3 1017.4 0.0
04/08:30pm 5.2 -0.3 0.4 71 1.9 WSW 19 22 10 12 1017.2 1017.3 0.0
04/08:00pm 5.3 0.5 -0.1 68 2.1 WSW 15 20 8 11 1016.9 1017.0 0.0
04/07:30pm 6.4 0.8 -0.3 62 2.6 WSW 19 24 10 13 1016.6 1016.7 0.0
04/07:00pm 8.1 1.5 -0.4 55 3.3 WSW 24 32 13 17 1016.5 1016.6 0.0
04/06:30pm 7.2 2.7 0.0 60 2.8 WSW 13 17 7 9 1016.2 1016.3 0.0
04/06:00pm 8.5 4.0 0.0 55 3.4 W 13 17 7 9 1015.8 1015.9 0.0
04/05:30pm 9.5 3.2 -0.7 49 4.0 WSW 22 30 12 16 1015.7 1015.8 0.0
04/05:00pm 11.1 4.4 -1.0 43 4.8 WSW 24 32 13 17 1015.3 1015.5 0.0
04/04:30pm 11.5 4.8 -0.9 42 5.0 WSW 24 33 13 18 1015.1 1015.3 0.0
04/04:00pm 11.6 3.7 -1.2 41 5.1 WSW 30 41 16 22 1015.0 1015.2 0.0
04/03:30pm 11.8 3.6 -1.3 40 5.2 WSW 32 41 17 22 1015.0 1015.2 0.0
04/03:00pm 11.8 4.0 -1.0 41 5.1 WSW 30 41 16 22 1014.9 1015.1 0.0
04/02:30pm 12.1 3.9 -1.1 40 5.3 WSW 32 44 17 24 1014.9 1015.1 0.0
04/02:00pm 11.6 3.1 -1.9 39 5.3 WSW 33 41 18 22 1015.0 1015.2 0.0
04/01:30pm 11.4 4.0 -1.0 42 5.0 W 28 41 15 22 1015.2 1015.4 0.0
04/01:00pm 11.2 3.3 -1.2 42 4.9 WSW 30 39 16 21 1015.7 1015.8 0.0
04/12:30pm 10.6 2.4 -1.1 44 4.6 WSW 32 39 17 21 1015.8 1015.9 0.0
04/12:00pm 10.2 2.6 -2.1 42 4.7 WSW 28 39 15 21 1016.1 1016.2 0.0
04/11:30am 9.3 2.1 -2.0 45 4.3 WSW 26 37 14 20 1016.1 1016.2 0.0
04/11:00am 8.9 1.9 -0.4 52 3.7 WSW 26 33 14 18 1016.5 1016.6 0.0
04/10:30am 8.3 1.0 -0.2 55 3.4 WSW 28 33 15 18 1016.8 1016.9 0.0
04/10:00am 7.8 0.8 -0.2 57 3.1 WSW 26 39 14 21 1016.7 1016.8 0.0
04/09:30am 6.7 0.5 2.2 73 1.9 WSW 24 35 13 19 1016.5 1016.6 0.0
04/09:00am 5.3 0.1 3.3 87 0.8 WSW 20 28 11 15 1016.3 1016.4 0.0
04/08:30am 4.2 -0.5 3.2 93 0.4 WSW 17 24 9 13 1016.1 1016.2 0.0
04/08:00am 3.3 -1.5 2.7 96 0.2 W 17 20 9 11 1015.9 1016.0 0.0
04/07:30am 3.1 -1.3 2.5 96 0.2 W 15 20 8 11 1015.6 1015.7 0.0
04/07:00am 3.7 -1.1 2.7 93 0.4 WSW 17 22 9 12 1015.1 1015.3 0.0
04/06:30am 3.5 -0.6 2.3 92 0.5 W 13 17 7 9 1014.9 1015.1 0.0
04/06:00am 4.4 0.4 3.1 91 0.5 W 13 17 7 9 1014.3 1014.5 0.0
04/05:30am 5.4 1.2 3.9 90 0.6 W 15 17 8 9 1014.1 1014.3 0.0
04/05:00am 6.5 2.8 4.7 88 0.8 W 13 19 7 10 1013.8 1014.0 0.0
04/04:30am 6.7 2.2 4.4 85 1.0 WSW 17 24 9 13 1013.8 1014.0 0.0
04/04:00am 6.5 2.1 4.7 88 0.8 WSW 17 20 9 11 1013.6 1013.8 0.0
04/03:30am 6.7 1.3 4.4 85 1.0 WSW 22 30 12 16 1013.5 1013.7 0.0
04/03:00am 6.5 1.6 5.3 92 0.5 WSW 20 26 11 14 1013.6 1013.8 0.0
04/02:30am 6.3 2.8 5.3 93 0.4 WSW 13 17 7 9 1013.8 1014.0 0.0
04/02:00am 7.3 3.8 5.6 89 0.8 W 13 15 7 8 1013.7 1013.9 0.0
04/01:30am 7.9 4.8 5.5 85 1.1 W 11 13 6 7 1013.8 1014.0 0.0
04/01:00am 8.2 4.3 5.3 82 1.3 W 15 19 8 10 1013.9 1014.1 0.0
04/12:30am 8.4 4.5 5.5 82 1.3 WSW 15 20 8 11 1013.8 1014.0 0.0
04/12:00am 7.2 3.8 6.0 92 0.5 W 13 17 7 9 1013.9 1014.1 0.0
 
Date/Time
EST
Temp
°C
App
Temp
°C
Dew
Point
°C
Rel
Hum
%
Delta-T
°C
Wind Press
QNH
hPa
Press
MSL
hPa
Rain since
9am
mm
Dir  Spd
km/h
Gust
km/h
Spd
kts
Gust
kts
03/11:30pm 6.9 3.3 5.2 89 0.8 W 13 15 7 8 1014.2 1014.4 0.0
03/11:00pm 7.6 4.6 5.9 89 0.8 W 11 13 6 7 1014.3 1014.5 0.0
03/10:30pm 7.4 5.2 6.0 91 0.6 NW 7 9 4 5 1014.4 1014.6 0.0
03/10:00pm 8.5 5.2 6.6 88 0.9 W 13 15 7 8 1014.4 1014.6 0.0
03/09:30pm 8.3 4.7 6.9 91 0.7 WSW 15 17 8 9 1014.1 1014.3 0.0
03/09:00pm 8.7 6.0 7.2 90 0.7 WSW 11 15 6 8 1014.2 1014.4 0.0
03/08:30pm 8.6 5.8 6.9 89 0.8 SW 11 13 6 7 1014.2 1014.4 0.0
03/08:00pm 9.3 6.9 6.9 85 1.1 SW 9 11 5 6 1014.0 1014.2 0.0
03/07:30pm 10.1 8.1 7.0 81 1.5 SSW 7 9 4 5 1013.8 1014.0 0.0
03/07:00pm 10.7 7.9 6.8 77 1.9 SW 11 13 6 7 1013.8 1014.0 0.0
03/06:30pm 12.0 8.8 5.2 63 3.1 WSW 11 15 6 8 1013.6 1013.8 0.0
03/06:00pm 13.6 10.6 4.2 53 4.3 NW 9 13 5 7 1013.5 1013.7 0.0
03/05:30pm 14.0 11.0 4.3 52 4.5 NNW 9 9 5 5 1013.5 1013.7 0.0
03/05:00pm 15.6 12.9 3.7 45 5.5 WNW 7 9 4 5 1014.0 1014.2 0.0
03/04:30pm 17.1 13.4 2.3 37 6.7 NW 11 15 6 8 1014.1 1014.3 0.0
03/04:00pm 17.9 13.9 3.0 37 6.9 NW 13 19 7 10 1014.2 1014.4 0.0
03/03:30pm 17.8 13.2 1.7 34 7.3 NW 15 20 8 11 1014.3 1014.5 0.0
03/03:00pm 18.0 13.9 2.3 35 7.2 NW 13 19 7 10 1014.4 1014.6 0.0
03/02:30pm 17.5 13.1 2.7 37 6.8 NW 15 19 8 10 1014.6 1014.8 0.0
03/02:00pm 17.6 14.2 4.2 41 6.3 NNW 11 19 6 10 1014.8 1015.0 0.0
03/01:30pm 16.8 13.2 3.1 40 6.3 NNW 11 17 6 9 1015.1 1015.3 0.0
03/01:00pm 16.6 13.3 4.3 44 5.8 N 11 13 6 7 1015.9 1016.0 0.0
03/12:30pm 15.8 13.1 3.6 44 5.6 NW 7 13 4 7 1016.6 1016.7 0.0
03/12:00pm 15.5 12.6 4.8 49 5.0 NNW 9 13 5 7 1017.2 1017.3 0.0
03/11:30am 14.4 10.7 4.4 51 4.6 N 13 17 7 9 1017.6 1017.7 0.0
03/11:00am 13.3 9.3 4.7 56 4.0 NNW 15 19 8 10 1018.0 1018.1 0.0
03/10:30am 12.0 8.3 4.7 61 3.3 N 13 19 7 10 1018.4 1018.5 0.0
03/10:00am 11.2 7.5 4.2 62 3.1 NNW 13 19 7 10 1018.7 1018.8 0.0
03/09:30am 9.9 5.8 4.1 67 2.6 NNW 15 19 8 10 1018.9 1019.0 0.0
03/09:00am 8.9 5.2 4.3 73 2.0 NNW 13 17 7 9 1019.0 1019.1 0.0
03/08:30am 7.5 3.4 4.5 81 1.3 N 15 19 8 10 1019.0 1019.1 0.0
03/08:00am 6.3 2.2 4.3 87 0.9 N 15 20 8 11 1019.0 1019.1 0.0
03/07:30am 6.0 2.3 4.3 89 0.7 N 13 20 7 11 1018.8 1018.9 0.0
03/07:00am 5.9 2.2 4.5 91 0.6 N 13 17 7 9 1018.7 1018.8 0.0
03/06:30am 6.2 2.2 4.8 91 0.6 N 15 20 8 11 1018.6 1018.7 0.0
03/06:00am 5.9 2.2 4.7 92 0.5 N 13 17 7 9 1018.6 1018.7 0.0
03/05:30am 6.0 2.3 4.5 90 0.6 N 13 19 7 10 1018.7 1018.8 0.0
03/05:00am 6.5 2.5 4.8 89 0.7 N 15 19 8 10 1018.6 1018.7 0.0
03/04:30am 6.8 2.8 5.0 88 0.8 N 15 20 8 11 1018.6 1018.7 0.0
03/04:00am 7.3 3.0 5.4 88 0.8 N 17 24 9 13 1018.6 1018.7 0.0
03/03:30am 6.7 2.9 5.7 93 0.4 NNE 15 20 8 11 1018.8 1018.9 0.0
03/03:00am 6.6 2.7 5.4 92 0.5 NNE 15 17 8 9 1019.2 1019.3 0.0
03/02:30am 7.0 3.6 5.8 92 0.5 NNE 13 19 7 10 1019.5 1019.6 0.0
03/02:00am 6.9 3.3 5.2 89 0.8 NNE 13 17 7 9 1019.8 1019.9 0.0
03/01:30am 7.4 3.8 5.2 86 1.0 NNE 13 17 7 9 1020.1 1020.2 0.0
03/01:00am 8.0 4.5 5.3 83 1.2 NE 13 19 7 10 1020.4 1020.5 0.0
03/12:30am 7.9 4.3 4.8 81 1.4 NE 13 17 7 9 1020.7 1020.8 0.0
03/12:00am 8.0 4.4 4.8 80 1.4 NE 13 17 7 9 1020.9 1021.0 0.0
 
Date/Time
EST
Temp
°C
App
Temp
°C
Dew
Point
°C
Rel
Hum
%
Delta-T
°C
Wind Press
QNH
hPa
Press
MSL
hPa
Rain since
9am
mm
Dir  Spd
km/h
Gust
km/h
Spd
kts
Gust
kts
02/11:30pm 7.2 3.4 4.0 80 1.4 NE 13 15 7 8 1021.3 1021.4 0.0
02/11:00pm 6.9 3.5 3.9 81 1.3 NE 11 15 6 8 1021.5 1021.6 0.0
02/10:30pm 7.4 4.1 4.4 81 1.3 NE 11 13 6 7 1021.7 1021.8 0.0
02/10:00pm 7.4 4.1 4.5 82 1.3 NE 11 13 6 7 1022.0 1022.1 0.0
02/09:30pm 7.6 3.7 3.3 74 1.8 NE 13 13 7 7 1022.0 1022.1 0.0
02/09:00pm 8.5 5.0 3.6 71 2.1 ENE 11 13 6 7 1022.2 1022.4 0.0
02/08:30pm 7.5 3.5 3.0 73 1.9 ENE 13 15 7 8 1022.2 1022.4 0.0

Other formats

Comma delimited format used in spreadsheet applications
http://www.bom.gov.au/fwo/IDN60801/IDN60801.95869.axf

JavaScript Object Notation format (JSON) in row-major order
http://www.bom.gov.au/fwo/IDN60801/IDN60801.95869.json

Data quality

Most of these data are generated automatically and are frequently updated. Quality checks on data are not normally performed. It is possible for incorrect values to appear. Refer to information at About Latest Weather Observations and please check the disclaimer before using these data.